Time;durP1;ratioP1;P1;durP2;ratioP2;P2;SDS_P1;SDS_P2;PMS_P1;PMS_P2;Temp;Humidity;BMP_temperature;BMP_pressure;BME280_temperature;BME280_humidity;BME280_pressure;Samples;Min_cycle;Max_cycle;Signal;HPM_P1;HPM_P2
2023/07/27 00:01:47;;;;;;;14.80;4.72;;;;;;;14.59;100.00;100664.72;4992674;28;20152;-74
2023/07/27 00:04:13;;;;;;;13.63;5.30;;;;;;;14.62;100.00;100668.69;4988680;28;20054;-75
2023/07/27 00:06:40;;;;;;;14.00;5.15;;;;;;;14.61;100.00;100658.69;4987471;28;20057;-74
2023/07/27 00:09:07;;;;;;;11.75;4.88;;;;;;;14.61;100.00;100658.69;4987911;28;20518;-75
2023/07/27 00:11:33;;;;;;;13.13;5.28;;;;;;;14.61;100.00;100653.91;4989888;28;20130;-75
2023/07/27 00:14:00;;;;;;;13.35;5.07;;;;;;;14.55;100.00;100649.31;4988044;28;20077;-74
2023/07/27 00:16:26;;;;;;;16.20;5.30;;;;;;;14.60;100.00;100651.53;4984154;28;20065;-74
2023/07/27 00:18:53;;;;;;;14.98;4.95;;;;;;;14.57;100.00;100650.44;4970899;28;20129;-75
2023/07/27 00:21:21;;;;;;;14.38;5.28;;;;;;;14.56;100.00;100648.06;4988273;28;20058;-74
2023/07/27 00:23:48;;;;;;;15.38;5.30;;;;;;;14.58;100.00;100645.59;4986965;28;20056;-74
2023/07/27 00:26:14;;;;;;;13.13;5.43;;;;;;;14.56;100.00;100637.66;4985129;28;20533;-75
2023/07/27 00:28:41;;;;;;;15.23;5.75;;;;;;;14.59;100.00;100644.38;4989147;28;20066;-74
2023/07/27 00:31:07;;;;;;;14.75;5.90;;;;;;;14.59;100.00;100633.19;4993444;28;20104;-74
2023/07/27 00:33:34;;;;;;;15.63;5.45;;;;;;;14.57;100.00;100642.03;4992020;28;20486;-74
2023/07/27 00:36:00;;;;;;;16.85;5.40;;;;;;;14.54;100.00;100630.94;4991369;28;20217;-74
2023/07/27 00:38:27;;;;;;;15.73;5.60;;;;;;;14.56;100.00;100629.25;4988667;28;20058;-74
2023/07/27 00:40:54;;;;;;;13.95;5.70;;;;;;;14.52;100.00;100630.63;4991948;28;20590;-75
2023/07/27 00:43:21;;;;;;;17.65;6.32;;;;;;;14.48;100.00;100615.94;4992196;28;20541;-74
2023/07/27 00:45:49;;;;;;;16.83;6.43;;;;;;;14.48;100.00;100622.31;4987542;28;20077;-75
2023/07/27 00:48:16;;;;;;;14.98;5.60;;;;;;;14.47;100.00;100614.38;4987985;28;20076;-75
2023/07/27 00:50:44;;;;;;;16.15;5.90;;;;;;;14.47;100.00;100617.16;4996372;28;20056;-75
2023/07/27 00:53:11;;;;;;;17.58;6.03;;;;;;;14.47;100.00;100614.38;4992372;28;20054;-74
2023/07/27 00:55:38;;;;;;;13.63;5.05;;;;;;;14.49;100.00;100611.94;4989764;28;20046;-75
2023/07/27 00:58:05;;;;;;;13.63;5.95;;;;;;;14.49;100.00;100609.13;4987075;28;20074;-76
2023/07/27 01:00:32;;;;;;;15.60;5.47;;;;;;;14.48;100.00;100599.16;4990413;28;20146;-75
2023/07/27 01:03:00;;;;;;;13.10;5.75;;;;;;;14.45;100.00;100600.06;4994977;28;20506;-75
2023/07/27 01:05:27;;;;;;;12.60;5.50;;;;;;;14.48;100.00;100599.16;4989595;28;20141;-75
2023/07/27 01:07:54;;;;;;;15.43;6.38;;;;;;;14.50;100.00;100602.28;4991454;28;20487;-76
2023/07/27 01:10:28;;;;;;;17.40;6.63;;;;;;;14.52;100.00;100594.25;4990462;28;20046;-74
2023/07/27 01:13:03;;;;;;;15.80;5.47;;;;;;;14.52;100.00;100600.59;4991483;28;20085;-73
2023/07/27 01:15:35;;;;;;;15.00;5.57;;;;;;;14.46;100.00;100584.84;4991156;28;20138;-75
2023/07/27 01:18:12;;;;;;;16.00;5.18;;;;;;;14.49;100.00;100578.34;4989640;28;20072;-75
2023/07/27 01:20:46;;;;;;;13.82;5.10;;;;;;;14.54;100.00;100572.19;4991326;28;20093;-75
2023/07/27 01:23:34;;;;;;;10.70;4.43;;;;;;;14.62;100.00;100565.16;4990026;28;20128;-75
2023/07/27 01:26:19;;;;;;;12.48;4.40;;;;;;;14.66;100.00;100555.41;4990837;28;20050;-74
2023/07/27 01:29:23;;;;;;;13.32;4.55;;;;;;;14.70;100.00;100558.09;4991791;28;20116;-74
2023/07/27 01:31:53;;;;;;;12.10;4.60;;;;;;;14.78;100.00;100553.81;4990913;28;20050;-74
2023/07/27 01:34:29;;;;;;;12.70;4.68;;;;;;;14.81;100.00;100545.31;4993879;28;20050;-75
2023/07/27 01:37:01;;;;;;;8.27;4.30;;;;;;;14.85;100.00;100545.19;4989544;28;20061;-75
2023/07/27 01:39:30;;;;;;;9.80;4.45;;;;;;;14.86;100.00;100536.34;4990361;28;20113;-74
2023/07/27 01:41:59;;;;;;;8.20;4.07;;;;;;;14.87;100.00;100537.13;4993186;28;20538;-76
2023/07/27 01:44:28;;;;;;;11.32;4.28;;;;;;;14.88;100.00;100538.69;4982517;28;20039;-75
2023/07/27 01:46:57;;;;;;;12.30;4.13;;;;;;;14.95;100.00;100539.25;4990150;28;20153;-75
2023/07/27 01:49:24;;;;;;;16.80;4.55;;;;;;;14.91;100.00;100532.19;4990593;28;20126;-75
2023/07/27 01:51:51;;;;;;;12.20;4.57;;;;;;;15.02;100.00;100538.19;4990157;28;20050;-75
2023/07/27 01:54:18;;;;;;;11.55;4.60;;;;;;;15.01;100.00;100536.66;4990322;28;20054;-75
2023/07/27 01:56:45;;;;;;;11.98;4.70;;;;;;;15.07;100.00;100537.66;4971609;28;20109;-75
2023/07/27 01:59:13;;;;;;;10.32;3.97;;;;;;;15.08;100.00;100533.59;4989978;28;20100;-74
2023/07/27 02:01:42;;;;;;;11.07;4.65;;;;;;;15.14;100.00;100545.78;4996778;28;20050;-75
2023/07/27 02:04:10;;;;;;;12.10;5.03;;;;;;;15.13;100.00;100540.66;4998097;28;20133;-75
2023/07/27 02:06:38;;;;;;;12.52;4.53;;;;;;;15.13;100.00;100541.44;4990710;28;20090;-75
2023/07/27 02:09:04;;;;;;;8.88;4.03;;;;;;;15.09;100.00;100532.34;4990378;28;20129;-75
2023/07/27 02:11:31;;;;;;;15.88;4.00;;;;;;;15.03;100.00;100534.94;4989887;28;20136;-75
2023/07/27 02:14:03;;;;;;;9.95;4.47;;;;;;;15.09;100.00;100528.78;4991380;28;20045;-75
2023/07/27 02:16:45;;;;;;;7.90;3.72;;;;;;;15.10;100.00;100538.75;4982488;28;20050;-75
2023/07/27 02:19:15;;;;;;;10.80;3.70;;;;;;;15.12;100.00;100536.28;4994493;28;20074;-75
2023/07/27 02:21:43;;;;;;;9.65;3.90;;;;;;;15.12;100.00;100539.09;4989683;28;20105;-74
2023/07/27 02:24:09;;;;;;;10.38;3.92;;;;;;;15.15;100.00;100541.00;4989837;28;20160;-73
2023/07/27 02:26:36;;;;;;;9.00;3.63;;;;;;;15.10;100.00;100530.34;4989170;28;20128;-74
2023/07/27 02:29:03;;;;;;;12.98;4.10;;;;;;;15.07;100.00;100532.03;4989299;28;20073;-75
2023/07/27 02:31:29;;;;;;;9.68;3.55;;;;;;;15.17;100.00;100544.09;4989844;28;20114;-74
2023/07/27 02:33:56;;;;;;;8.85;3.35;;;;;;;15.06;100.00;100533.28;4989682;28;20140;-74
2023/07/27 02:36:22;;;;;;;12.88;4.47;;;;;;;15.15;100.00;100533.34;4988981;28;20557;-74
2023/07/27 02:38:49;;;;;;;7.10;2.50;;;;;;;15.01;100.00;100536.66;4989849;28;20105;-76
2023/07/27 02:41:15;;;;;;;13.60;4.65;;;;;;;15.08;100.00;100533.59;4989328;28;20050;-74
2023/07/27 02:43:42;;;;;;;13.93;4.25;;;;;;;15.01;100.00;100531.03;4989580;28;20457;-74
2023/07/27 02:46:08;;;;;;;9.18;3.65;;;;;;;15.06;100.00;100532.50;4989470;28;20101;-74
2023/07/27 02:48:35;;;;;;;8.25;3.50;;;;;;;14.95;100.00;100544.03;4995050;28;20050;-74
2023/07/27 02:51:02;;;;;;;13.20;4.82;;;;;;;14.92;100.00;100542.13;4991625;28;20054;-75
2023/07/27 02:53:28;;;;;;;6.20;3.03;;;;;;;14.72;100.00;100538.84;4988999;28;20121;-75
2023/07/27 02:55:59;;;;;;;10.57;4.35;;;;;;;14.76;100.00;100542.31;4991248;28;20093;-74
2023/07/27 02:58:26;;;;;;;14.57;5.05;;;;;;;14.68;100.00;100540.97;4981711;28;20046;-74
2023/07/27 03:01:02;;;;;;;12.43;4.43;;;;;;;14.61;100.00;100549.59;4990545;28;20108;-74
2023/07/27 03:03:29;;;;;;;14.60;5.25;;;;;;;14.55;100.00;100548.59;4989456;28;20066;-75
2023/07/27 03:06:00;;;;;;;12.25;4.68;;;;;;;14.51;100.00;100550.69;4991053;28;20080;-75
2023/07/27 03:08:27;;;;;;;10.25;4.20;;;;;;;14.43;100.00;100546.59;4989306;28;20054;-74
2023/07/27 03:10:55;;;;;;;15.38;5.50;;;;;;;14.36;100.00;100553.16;4989064;28;20077;-75
2023/07/27 03:13:21;;;;;;;11.40;4.82;;;;;;;14.28;100.00;100549.00;4989045;28;20116;-75
2023/07/27 03:15:48;;;;;;;12.02;5.57;;;;;;;14.33;100.00;100554.06;4988262;28;20050;-74
2023/07/27 03:18:15;;;;;;;15.48;5.63;;;;;;;14.27;100.00;100555.84;4986990;28;20105;-74
2023/07/27 03:20:42;;;;;;;13.70;6.00;;;;;;;14.29;100.00;100552.59;4989197;28;20046;-75
2023/07/27 03:23:09;;;;;;;13.20;5.53;;;;;;;14.19;100.00;100550.91;4989172;28;20054;-75
2023/07/27 03:25:37;;;;;;;13.60;5.88;;;;;;;14.18;100.00;100544.50;4981328;28;20080;-76
2023/07/27 03:28:05;;;;;;;16.40;6.35;;;;;;;14.20;100.00;100552.47;4990026;28;20486;-75
2023/07/27 03:30:33;;;;;;;18.67;7.45;;;;;;;14.14;100.00;100557.81;4996128;28;20077;-75
2023/07/27 03:33:00;;;;;;;15.65;6.90;;;;;;;14.15;100.00;100556.59;4985551;28;20093;-75
2023/07/27 03:35:27;;;;;;;15.48;7.63;;;;;;;14.10;100.00;100559.16;4989201;28;20046;-75
2023/07/27 03:37:53;;;;;;;17.20;7.82;;;;;;;14.14;100.00;100557.81;4988468;28;20041;-75
2023/07/27 03:40:20;;;;;;;19.40;8.50;;;;;;;14.10;100.00;100556.34;4988750;28;20082;-75
2023/07/27 03:42:46;;;;;;;17.35;8.32;;;;;;;14.07;100.00;100554.44;4989126;28;20517;-74
2023/07/27 03:45:14;;;;;;;20.90;7.60;;;;;;;14.04;100.00;100549.78;4986747;28;20073;-73
2023/07/27 03:47:42;;;;;;;14.80;7.47;;;;;;;14.03;100.00;100546.19;4987530;28;20050;-74
2023/07/27 03:50:12;;;;;;;18.73;7.65;;;;;;;14.02;100.00;100547.44;4989626;28;20069;-74
2023/07/27 03:52:39;;;;;;;20.10;7.63;;;;;;;14.04;100.00;100544.19;4971721;28;20057;-75
2023/07/27 03:55:06;;;;;;;15.50;6.95;;;;;;;14.00;100.00;100540.69;4988501;28;20070;-74
2023/07/27 03:57:33;;;;;;;15.02;5.97;;;;;;;13.88;100.00;100533.84;4988560;28;20054;-74
2023/07/27 04:00:00;;;;;;;14.15;5.80;;;;;;;14.03;100.00;100531.41;4985465;28;20089;-74
2023/07/27 04:02:28;;;;;;;15.13;6.53;;;;;;;14.04;100.00;100533.78;4981130;28;20137;-74
2023/07/27 04:04:55;;;;;;;15.40;6.93;;;;;;;13.96;100.00;100529.63;4990872;28;20150;-75
2023/07/27 04:07:21;;;;;;;17.63;6.88;;;;;;;13.90;100.00;100520.22;4990811;28;20089;-74
2023/07/27 04:09:48;;;;;;;18.35;6.45;;;;;;;13.91;100.00;100523.81;4974661;28;20062;-74
2023/07/27 04:12:14;;;;;;;17.50;6.80;;;;;;;13.87;100.00;100523.16;4992097;28;20097;-74
2023/07/27 04:14:41;;;;;;;14.80;6.57;;;;;;;13.86;100.00;100522.34;4992011;28;20519;-73
2023/07/27 04:17:08;;;;;;;14.63;5.95;;;;;;;13.77;100.00;100518.66;4990915;28;20054;-74
2023/07/27 04:19:35;;;;;;;21.55;7.65;;;;;;;13.79;100.00;100513.38;4991648;28;20074;-74
2023/07/27 04:22:02;;;;;;;16.52;5.95;;;;;;;13.78;100.00;100517.41;4992360;28;20069;-74
2023/07/27 04:24:29;;;;;;;14.05;5.75;;;;;;;13.78;100.00;100514.63;4991739;28;20045;-74
2023/07/27 04:26:56;;;;;;;15.60;6.10;;;;;;;13.77;100.00;100513.81;4990636;28;20042;-74
2023/07/27 04:29:23;;;;;;;15.10;6.30;;;;;;;13.76;100.00;100519.84;4998123;28;20066;-75
2023/07/27 04:31:49;;;;;;;15.48;5.65;;;;;;;13.66;100.00;100510.56;4992321;28;20080;-74
2023/07/27 04:34:16;;;;;;;17.63;8.05;;;;;;;13.72;100.00;100513.59;4991785;28;20062;-74
2023/07/27 04:36:42;;;;;;;14.23;5.90;;;;;;;13.64;100.00;100507.44;4991376;28;20120;-74
2023/07/27 04:39:09;;;;;;;12.57;5.82;;;;;;;13.61;100.00;100510.34;4996198;28;20133;-74
2023/07/27 04:41:37;;;;;;;17.58;6.00;;;;;;;13.52;100.00;100510.19;4991805;28;20050;-74
2023/07/27 04:44:03;;;;;;;13.57;5.55;;;;;;;13.58;100.00;100509.22;4991440;28;20593;-74
2023/07/27 04:46:30;;;;;;;13.15;6.15;;;;;;;13.53;100.00;100500.56;4990022;28;20081;-73
2023/07/27 04:48:57;;;;;;;15.15;6.35;;;;;;;13.54;100.00;100504.97;4991919;28;20062;-74
2023/07/27 04:51:23;;;;;;;17.05;7.15;;;;;;;13.58;100.00;100505.63;4991703;28;20137;-73
2023/07/27 04:53:53;;;;;;;14.85;6.32;;;;;;;13.56;100.00;100506.06;4991294;28;20051;-74
2023/07/27 04:56:19;;;;;;;19.95;6.82;;;;;;;13.48;100.00;100498.34;4989773;28;20410;-74
2023/07/27 04:58:46;;;;;;;15.18;6.00;;;;;;;13.53;100.00;100497.78;4995827;28;20125;-74
2023/07/27 05:01:12;;;;;;;17.35;6.85;;;;;;;13.48;100.00;100501.13;4991583;28;20061;-75
2023/07/27 05:03:39;;;;;;;16.05;6.95;;;;;;;13.52;100.00;100487.84;4991772;28;20053;-74
2023/07/27 05:06:05;;;;;;;17.75;6.88;;;;;;;13.55;100.00;100481.38;4990540;28;20043;-74
2023/07/27 05:08:32;;;;;;;17.63;7.60;;;;;;;13.50;100.00;100477.13;4991553;28;20054;-74
2023/07/27 05:10:59;;;;;;;15.85;6.00;;;;;;;13.53;100.00;100470.66;4993944;28;20085;-73
2023/07/27 05:13:25;;;;;;;15.68;7.22;;;;;;;13.54;100.00;100469.41;4974068;28;20101;-75
2023/07/27 05:15:52;;;;;;;13.55;5.50;;;;;;;13.49;100.00;100471.97;4987908;28;20146;-74
2023/07/27 05:18:18;;;;;;;13.25;5.35;;;;;;;13.46;100.00;100459.69;4991579;28;20113;-74
2023/07/27 05:20:45;;;;;;;17.52;6.85;;;;;;;13.48;100.00;100448.06;4990007;28;20479;-74
2023/07/27 05:23:11;;;;;;;16.38;6.60;;;;;;;13.49;100.00;100452.44;4990835;28;20054;-74
2023/07/27 05:25:38;;;;;;;14.90;5.95;;;;;;;13.50;100.00;100454.78;4989455;28;20046;-74
2023/07/27 05:28:04;;;;;;;15.68;6.10;;;;;;;13.50;100.00;100451.97;4990873;28;20137;-74
2023/07/27 05:30:31;;;;;;;14.57;6.82;;;;;;;13.50;100.00;100445.63;4990881;28;20478;-74
2023/07/27 05:32:58;;;;;;;16.33;6.15;;;;;;;13.50;100.00;100432.44;4990437;28;20132;-74
2023/07/27 05:35:25;;;;;;;16.15;6.60;;;;;;;13.56;100.00;100443.84;4989077;28;20129;-72
2023/07/27 05:37:51;;;;;;;17.85;7.03;;;;;;;13.59;100.00;100432.56;4991091;28;20169;-73
2023/07/27 05:40:18;;;;;;;21.08;8.10;;;;;;;13.53;100.00;100428.75;4989475;28;20065;-74
2023/07/27 05:42:44;;;;;;;17.63;7.38;;;;;;;13.52;100.00;100418.81;4991117;28;20105;-73
2023/07/27 05:45:11;;;;;;;12.40;5.85;;;;;;;13.57;100.00;100412.66;4990005;28;20662;-74
2023/07/27 05:47:37;;;;;;;16.30;6.85;;;;;;;13.59;100.00;100409.44;4991490;28;20054;-74
2023/07/27 05:50:06;;;;;;;18.95;6.90;;;;;;;13.56;100.00;100399.94;4990916;28;20065;-72
2023/07/27 05:52:32;;;;;;;16.60;6.97;;;;;;;13.55;100.00;100386.41;4990164;28;20045;-74
2023/07/27 05:54:59;;;;;;;15.88;6.93;;;;;;;13.56;100.00;100382.38;4988586;28;20046;-73
2023/07/27 05:57:26;;;;;;;18.02;7.43;;;;;;;13.63;100.00;100374.59;4989286;28;20050;-73
2023/07/27 05:59:52;;;;;;;18.58;8.90;;;;;;;13.58;100.00;100374.38;4988186;28;20059;-73
2023/07/27 06:02:32;;;;;;;18.30;7.22;;;;;;;13.66;100.00;100381.28;4983585;28;20082;-74
2023/07/27 06:04:58;;;;;;;17.35;6.10;;;;;;;13.59;100.00;100364.75;4988911;28;20137;-74
2023/07/27 06:07:26;;;;;;;14.95;6.30;;;;;;;13.60;100.00;100366.34;4989457;28;20078;-74
2023/07/27 06:09:52;;;;;;;17.05;6.95;;;;;;;13.63;100.00;100368.22;4986579;28;20073;-74
2023/07/27 06:12:19;;;;;;;14.57;5.10;;;;;;;13.61;100.00;100379.06;4990864;28;20050;-73
2023/07/27 06:14:46;;;;;;;12.88;5.68;;;;;;;13.65;100.00;100368.56;4988843;28;20051;-74
2023/07/27 06:17:12;;;;;;;10.75;4.63;;;;;;;13.63;100.00;100365.41;4988780;28;20766;-73
2023/07/27 06:19:39;;;;;;;15.60;4.80;;;;;;;13.50;100.00;100357.03;4984599;28;20141;-74
2023/07/27 06:22:05;;;;;;;14.10;5.55;;;;;;;13.64;100.00;100362.19;4982827;28;20525;-74
2023/07/27 06:24:32;;;;;;;13.13;5.50;;;;;;;13.58;100.00;100360.41;4987735;28;20068;-74
2023/07/27 06:26:59;;;;;;;13.63;5.57;;;;;;;13.65;100.00;100354.59;4988337;28;20069;-74
2023/07/27 06:29:25;;;;;;;12.15;5.30;;;;;;;13.64;100.00;100361.41;4988961;28;20152;-73
2023/07/27 06:31:52;;;;;;;15.23;5.35;;;;;;;13.65;100.00;100355.38;4989021;28;20184;-73
2023/07/27 06:34:19;;;;;;;12.02;5.70;;;;;;;13.73;100.00;100347.53;4986598;28;20046;-74
2023/07/27 06:36:45;;;;;;;12.52;4.28;;;;;;;13.72;100.00;100345.97;4989401;28;20042;-74
2023/07/27 06:39:12;;;;;;;11.02;4.50;;;;;;;13.66;100.00;100364.53;4992083;28;20228;-74
2023/07/27 06:41:38;;;;;;;14.65;4.70;;;;;;;13.67;100.00;100360.53;4987672;28;20077;-73
2023/07/27 06:44:05;;;;;;;9.82;3.97;;;;;;;13.69;100.00;100363.63;4987601;28;20068;-74
2023/07/27 06:46:32;;;;;;;10.10;4.55;;;;;;;13.67;100.00;100360.53;4989103;28;20053;-74
2023/07/27 06:48:59;;;;;;;9.93;3.38;;;;;;;13.67;100.00;100363.31;4988978;28;20427;-75
2023/07/27 06:51:26;;;;;;;11.40;4.85;;;;;;;13.69;100.00;100358.84;4985033;28;20066;-75
2023/07/27 06:53:52;;;;;;;11.45;4.47;;;;;;;13.72;100.00;100357.94;4985327;28;20054;-73
2023/07/27 06:56:19;;;;;;;12.05;4.72;;;;;;;13.64;100.00;100355.81;4977288;28;20141;-74
2023/07/27 06:58:46;;;;;;;11.57;3.05;;;;;;;13.63;100.00;100352.25;4989430;28;20046;-75
2023/07/27 07:01:13;;;;;;;10.05;3.45;;;;;;;13.69;100.00;100358.03;4988405;28;20061;-75
2023/07/27 07:03:39;;;;;;;9.68;3.40;;;;;;;13.74;100.00;100351.91;4989425;28;20057;-75
2023/07/27 07:06:06;;;;;;;11.60;4.55;;;;;;;13.83;100.00;100352.78;4988144;28;20054;-73
2023/07/27 07:08:33;;;;;;;10.20;3.60;;;;;;;13.82;100.00;100353.25;4986238;28;20602;-76
2023/07/27 07:10:59;;;;;;;8.73;3.85;;;;;;;13.81;100.00;100348.88;4988414;28;20062;-75
2023/07/27 07:13:26;;;;;;;9.10;3.80;;;;;;;13.82;100.00;100350.44;4989103;28;20138;-74
2023/07/27 07:15:52;;;;;;;9.18;4.45;;;;;;;13.93;100.00;100362.06;4987772;28;20053;-74
2023/07/27 07:18:19;;;;;;;7.82;3.83;;;;;;;13.91;100.00;100364.53;4985930;28;20065;-73
2023/07/27 07:20:46;;;;;;;10.02;4.32;;;;;;;13.91;100.00;100364.53;4988081;28;20561;-75
2023/07/27 07:23:16;;;;;;;8.43;3.75;;;;;;;13.97;100.00;100359.91;4988758;28;20052;-75
2023/07/27 07:25:43;;;;;;;4.57;2.45;;;;;;;13.83;100.00;100357.59;4987951;28;20073;-75
2023/07/27 07:28:10;;;;;;;5.15;2.65;;;;;;;13.92;100.00;100349.31;4984924;28;20061;-75
2023/07/27 07:30:41;;;;;;;6.95;3.50;;;;;;;14.02;100.00;100354.56;4987305;28;20053;-74
2023/07/27 07:33:08;;;;;;;10.35;4.00;;;;;;;14.06;100.00;100354.44;4986391;28;20116;-74
2023/07/27 07:35:38;;;;;;;6.13;2.45;;;;;;;13.98;100.00;100350.31;4988542;28;20043;-76
2023/07/27 07:38:06;;;;;;;4.70;1.70;;;;;;;14.04;100.00;100356.91;4986524;28;20046;-75
2023/07/27 07:40:33;;;;;;;8.93;3.20;;;;;;;14.05;100.00;100350.09;4983551;28;20573;-75
2023/07/27 07:42:59;;;;;;;9.55;3.50;;;;;;;14.14;100.00;100355.75;4993888;28;20085;-74
2023/07/27 07:45:26;;;;;;;6.25;3.45;;;;;;;14.14;100.00;100344.56;4980980;28;20136;-75
2023/07/27 07:47:52;;;;;;;3.22;1.23;;;;;;;14.15;100.00;100348.94;4989416;28;20105;-75
2023/07/27 07:50:19;;;;;;;6.97;3.30;;;;;;;14.18;100.00;100348.06;4987857;28;20046;-74
2023/07/27 07:52:46;;;;;;;8.63;3.67;;;;;;;14.31;100.00;100345.97;4986175;28;20495;-74
2023/07/27 07:55:16;;;;;;;8.07;3.67;;;;;;;14.33;100.00;100335.94;4986657;28;20125;-72
2023/07/27 07:57:42;;;;;;;10.27;3.55;;;;;;;14.34;100.00;100348.66;4987356;28;20046;-75
2023/07/27 08:00:09;;;;;;;5.40;1.88;;;;;;;14.29;100.00;100340.88;4988989;28;20086;-76
2023/07/27 08:02:40;;;;;;;8.23;3.85;;;;;;;14.43;100.00;100340.41;4987141;28;20047;-73
2023/07/27 08:05:07;;;;;;;4.85;2.55;;;;;;;14.25;100.00;100340.19;4985825;28;20896;-75
2023/07/27 08:07:34;;;;;;;1.33;1.13;;;;;;;14.32;100.00;100345.53;4985143;28;20052;-74
2023/07/27 08:10:02;;;;;;;6.25;3.22;;;;;;;14.48;100.00;100342.59;4986026;28;22712;-74
2023/07/27 08:12:29;;;;;;;9.18;3.95;;;;;;;14.53;100.00;100330.88;4988096;28;20878;-74
2023/07/27 08:14:55;;;;;;;5.75;3.15;;;;;;;14.59;100.00;100337.41;4987900;28;20502;-74
2023/07/27 08:17:22;;;;;;;2.17;1.52;;;;;;;14.51;100.00;100338.13;4983510;28;21255;-75
2023/07/27 08:19:49;;;;;;;6.03;3.00;;;;;;;14.50;100.00;100334.56;4989332;28;20060;-74
2023/07/27 08:22:16;;;;;;;9.68;3.47;;;;;;;14.61;100.00;100331.38;4988590;28;20081;-74
2023/07/27 08:24:43;;;;;;;4.57;1.65;;;;;;;14.55;100.00;100330.41;4982190;28;20085;-74
2023/07/27 08:27:10;;;;;;;2.22;1.65;;;;;;;14.54;100.00;100326.03;4986054;28;20502;-74
2023/07/27 08:29:37;;;;;;;4.15;1.75;;;;;;;14.63;100.00;100323.31;4985763;28;20110;-74
2023/07/27 08:32:04;;;;;;;3.38;1.45;;;;;;;14.63;100.00;100332.50;4986130;28;20081;-75
2023/07/27 08:34:30;;;;;;;4.90;1.63;;;;;;;14.51;100.00;100318.53;4987480;28;20454;-73
2023/07/27 08:36:57;;;;;;;7.53;3.03;;;;;;;14.70;100.00;100317.47;4972569;28;20054;-73
2023/07/27 08:39:24;;;;;;;4.95;2.65;;;;;;;14.80;100.00;100324.69;4984943;28;20070;-75
2023/07/27 08:41:51;;;;;;;6.07;2.97;;;;;;;14.83;100.00;100323.78;4981011;28;20144;-76
2023/07/27 08:44:18;;;;;;;2.70;1.88;;;;;;;14.78;100.00;100321.56;4990494;28;20085;-76
2023/07/27 08:46:46;;;;;;;6.00;3.10;;;;;;;14.84;100.00;100306.53;4986792;28;20050;-75
2023/07/27 08:49:14;;;;;;;7.55;3.35;;;;;;;14.92;100.00;100312.63;4992550;28;20088;-75
2023/07/27 08:51:44;;;;;;;6.40;2.95;;;;;;;14.98;100.00;100308.78;4985843;28;20054;-75
2023/07/27 08:54:11;;;;;;;0.98;0.88;;;;;;;14.84;100.00;100314.94;4980452;28;20058;-77
2023/07/27 08:56:37;;;;;;;2.85;1.05;;;;;;;14.92;100.00;100316.22;4978468;28;20050;-75
2023/07/27 08:59:04;;;;;;;6.30;2.40;;;;;;;14.90;100.00;100310.31;4990578;28;20082;-75
2023/07/27 09:01:31;;;;;;;6.03;3.15;;;;;;;15.03;100.00;100307.44;4990849;28;20053;-76
2023/07/27 09:03:58;;;;;;;3.92;1.83;;;;;;;14.94;100.00;100318.56;4987733;28;20141;-75
2023/07/27 09:06:44;;;;;;;4.97;2.65;;;;;;;14.99;100.00;100312.38;4977579;28;20528;-76
2023/07/27 09:09:14;;;;;;;1.75;1.15;;;;;;;14.93;100.00;100326.16;4988247;28;20538;-76
2023/07/27 09:11:42;;;;;;;4.13;1.50;;;;;;;14.88;100.00;100331.56;4989539;28;21030;-76
2023/07/27 09:14:12;;;;;;;3.47;0.90;;;;;;;14.90;100.00;100329.91;4989141;28;20474;-76
2023/07/27 09:16:39;;;;;;;3.05;1.30;;;;;;;15.09;100.00;100322.38;4991404;28;20069;-76
2023/07/27 09:19:06;;;;;;;1.15;0.80;;;;;;;15.07;100.00;100327.66;4991425;28;20055;-76
2023/07/27 09:21:41;;;;;;;1.50;1.15;;;;;;;15.03;100.00;100321.44;4985337;28;20113;-76
2023/07/27 09:24:16;;;;;;;2.05;1.15;;;;;;;14.99;100.00;100312.38;4988281;28;20118;-77
2023/07/27 09:26:47;;;;;;;2.22;1.02;;;;;;;15.01;100.00;100318.28;4991334;28;20054;-75
2023/07/27 09:29:20;;;;;;;4.53;2.10;;;;;;;15.19;100.00;100314.81;4983783;28;20058;-75
2023/07/27 09:31:49;;;;;;;5.03;2.55;;;;;;;15.23;100.00;100319.06;4978849;28;20054;-76
2023/07/27 09:34:17;;;;;;;4.95;2.40;;;;;;;15.23;100.00;100313.47;4973420;28;20050;-76
2023/07/27 09:36:43;;;;;;;1.10;1.00;;;;;;;15.29;100.00;100330.44;4986058;28;20046;-75
2023/07/27 09:39:11;;;;;;;5.25;3.10;;;;;;;15.37;100.00;100317.75;4990826;28;20096;-76
2023/07/27 09:41:39;;;;;;;1.90;0.88;;;;;;;15.30;100.00;100313.19;4986847;28;20167;-75
2023/07/27 09:44:15;;;;;;;0.60;0.60;;;;;;;15.37;100.00;100309.34;4971383;28;20093;-75
2023/07/27 09:46:42;;;;;;;;;;;;;;;15.34;100.00;100313.81;4986688;28;20106;-74
2023/07/27 09:49:11;;;;;;;1.50;0.77;;;;;;;15.41;100.00;100316.38;4991176;28;20405;-75
2023/07/27 09:51:38;;;;;;;2.67;1.50;;;;;;;15.48;100.00;100310.47;4989477;28;20173;-75
2023/07/27 09:54:05;;;;;;;2.22;1.50;;;;;;;15.54;100.00;100317.06;4987148;28;20070;-75
2023/07/27 09:56:33;;;;;;;2.65;1.45;;;;;;;15.57;100.00;100309.75;4989716;28;20115;-75
2023/07/27 09:59:00;;;;;;;1.60;1.33;;;;;;;15.54;100.00;100317.06;4984013;28;20058;-75
2023/07/27 10:01:27;;;;;;;4.32;1.45;;;;;;;15.55;100.00;100307.41;4989928;28;20110;-74
2023/07/27 10:04:00;;;;;;;5.32;2.30;;;;;;;15.62;100.00;100309.91;4990253;28;20526;-73
2023/07/27 10:06:30;;;;;;;2.90;1.25;;;;;;;15.62;100.00;100318.31;4987457;28;20042;-75
2023/07/27 10:08:57;;;;;;;4.68;2.20;;;;;;;15.71;100.00;100306.34;4984043;28;20066;-75
2023/07/27 10:11:30;;;;;;;2.30;1.60;;;;;;;15.73;100.00;100312.28;4981438;28;20050;-74
2023/07/27 10:14:16;;;;;;;2.15;0.70;;;;;;;15.74;100.00;100302.63;4970073;28;20062;-76
2023/07/27 10:16:56;;;;;;;5.65;2.20;;;;;;;15.92;100.00;100302.69;4989352;28;20057;-74
2023/07/27 10:19:23;;;;;;;3.13;2.03;;;;;;;15.94;100.00;100306.59;4989215;28;20082;-74
2023/07/27 10:21:51;;;;;;;4.50;1.45;;;;;;;15.85;100.00;100302.97;4990235;28;20054;-75
2023/07/27 10:24:24;;;;;;;1.63;0.98;;;;;;;15.89;100.00;100301.59;4984754;28;20051;-75
2023/07/27 10:26:52;;;;;;;1.63;0.95;;;;;;;15.85;100.00;100297.38;4989685;28;20525;-76
2023/07/27 10:29:24;;;;;;;3.65;1.95;;;;;;;15.83;100.00;100295.03;4983105;28;20146;-75
2023/07/27 10:32:07;;;;;;;6.47;2.22;;;;;;;16.03;100.00;100309.41;4988750;28;20128;-75
2023/07/27 10:34:35;;;;;;;5.40;2.30;;;;;;;16.03;100.00;100306.59;4985179;28;20057;-73
2023/07/27 10:37:12;;;;;;;4.68;2.30;;;;;;;16.00;100.00;100303.97;4990385;28;20061;-75
2023/07/27 10:39:47;;;;;;;1.38;0.98;;;;;;;16.01;100.00;100311.13;4991289;28;20046;-75
2023/07/27 10:42:19;;;;;;;4.28;2.40;;;;;;;16.11;100.00;100302.25;4990026;28;20054;-75
2023/07/27 10:44:52;;;;;;;0.85;0.65;;;;;;;16.04;100.00;100302.53;4987743;28;20050;-74
2023/07/27 10:47:22;;;;;;;4.53;2.33;;;;;;;16.23;100.00;100306.94;4988688;28;20510;-74
2023/07/27 10:49:55;;;;;;;2.83;1.58;;;;;;;16.33;100.00;100302.94;4972512;28;20503;-74
2023/07/27 10:52:27;;;;;;;4.82;2.55;;;;;;;16.35;100.00;100303.25;4990873;28;20435;-74
2023/07/27 10:54:57;;;;;;;3.42;1.70;;;;;;;16.34;100.00;100296.06;4992924;28;20469;-74
2023/07/27 10:57:25;;;;;;;4.60;1.83;;;;;;;16.34;100.00;100289.69;4989823;28;20137;-75
2023/07/27 10:59:52;;;;;;;3.40;1.98;;;;;;;16.38;100.00;100290.31;4989789;28;20113;-74
2023/07/27 11:02:24;;;;;;;2.20;1.05;;;;;;;16.29;100.00;100291.09;4989867;28;20167;-74
2023/07/27 11:04:54;;;;;;;1.90;1.15;;;;;;;16.33;100.00;100288.13;4988665;28;20636;-75
2023/07/27 11:07:32;;;;;;;3.53;1.60;;;;;;;16.32;100.00;100278.94;4989310;28;20561;-75
2023/07/27 11:10:29;;;;;;;4.53;1.83;;;;;;;16.28;100.00;100281.13;4989976;28;20120;-74
2023/07/27 11:12:56;;;;;;;0.52;0.35;;;;;;;16.33;100.00;100283.28;4989358;28;20137;-75
2023/07/27 11:15:22;;;;;;;4.65;1.80;;;;;;;16.43;100.00;100278.44;4991534;28;20141;-74
2023/07/27 11:17:50;;;;;;;1.85;1.35;;;;;;;16.24;100.00;100274.84;4990062;28;20074;-75